Time;durP1;ratioP1;P1;durP2;ratioP2;P2;SDS_P1;SDS_P2;PMS_P1;PMS_P2;Temp;Humidity;BMP_temperature;BMP_pressure;BME280_temperature;BME280_humidity;BME280_pressure;Samples;Min_cycle;Max_cycle;Signal;HPM_P1;HPM_P2
2022/12/19 00:01:44;;;;;;;43.88;21.92;;;0.50;99.90;;;;;;5090866;28;20048;-81
2022/12/19 00:04:32;;;;;;;47.00;23.67;;;0.50;99.90;;;;;;5047876;28;20545;-83
2022/12/19 00:07:19;;;;;;;50.50;23.90;;;0.50;99.90;;;;;;5099530;28;20054;-76
2022/12/19 00:10:07;;;;;;;43.45;22.50;;;0.50;99.90;;;;;;5083095;28;20173;-76
2022/12/19 00:12:53;;;;;;;47.83;24.48;;;0.50;99.90;;;;;;5048717;28;20088;-81
2022/12/19 00:15:39;;;;;;;46.85;24.23;;;0.50;99.90;;;;;;5062510;28;20627;-81
2022/12/19 00:18:25;;;;;;;49.47;24.83;;;0.60;99.90;;;;;;5077694;28;20430;-78
2022/12/19 00:21:15;;;;;;;44.38;22.95;;;0.60;99.90;;;;;;5083048;28;20151;-77
2022/12/19 00:24:03;;;;;;;46.53;23.95;;;0.60;99.90;;;;;;5093648;28;20137;-85
2022/12/19 00:26:49;;;;;;;44.90;23.20;;;0.60;99.90;;;;;;5069207;28;20055;-77
2022/12/19 00:29:35;;;;;;;46.75;24.50;;;0.60;99.90;;;;;;5060481;28;20138;-82
2022/12/19 00:32:21;;;;;;;51.78;27.23;;;0.60;99.90;;;;;;5075399;28;20082;-86
2022/12/19 00:35:08;;;;;;;49.00;25.10;;;0.70;99.90;;;;;;5077463;28;20048;-81
2022/12/19 00:37:54;;;;;;;50.60;26.55;;;0.70;99.90;;;;;;5093500;28;20056;-77
2022/12/19 00:40:40;;;;;;;48.20;25.55;;;0.70;99.90;;;;;;5092192;28;20059;-80
2022/12/19 00:43:26;;;;;;;49.42;26.08;;;0.70;99.90;;;;;;5074752;28;20048;-78
2022/12/19 00:46:14;;;;;;;53.25;26.25;;;0.70;99.90;;;;;;5093980;28;20048;-85
2022/12/19 00:49:00;;;;;;;47.45;24.90;;;0.70;99.90;;;;;;5101497;28;20091;-81
2022/12/19 00:51:47;;;;;;;50.90;25.30;;;0.70;99.90;;;;;;5074133;28;20047;-77
2022/12/19 00:54:33;;;;;;;49.05;25.80;;;0.70;99.90;;;;;;5074511;28;20048;-80
2022/12/19 00:57:19;;;;;;;50.63;24.92;;;0.80;99.90;;;;;;5077652;28;20055;-82
2022/12/19 01:00:06;;;;;;;51.42;26.00;;;0.80;99.90;;;;;;5077838;28;20143;-80
2022/12/19 01:02:52;;;;;;;56.15;27.33;;;0.80;99.90;;;;;;5061046;28;20463;-78
2022/12/19 01:05:38;;;;;;;53.30;26.27;;;0.90;99.90;;;;;;5075041;28;20072;-77
2022/12/19 01:08:24;;;;;;;54.22;27.90;;;0.90;99.90;;;;;;5073330;28;20135;-75
2022/12/19 01:11:11;;;;;;;52.53;24.92;;;0.90;99.90;;;;;;5063054;28;20112;-84
2022/12/19 01:13:57;;;;;;;58.03;27.08;;;0.90;99.90;;;;;;5067166;28;20496;-86
2022/12/19 01:16:43;;;;;;;54.10;25.13;;;0.90;99.90;;;;;;5098874;28;20044;-80
2022/12/19 01:19:29;;;;;;;50.88;25.58;;;1.00;99.90;;;;;;5059911;28;20058;-80
2022/12/19 01:22:15;;;;;;;53.08;27.60;;;1.00;99.90;;;;;;5072410;28;20094;-82
2022/12/19 01:25:02;;;;;;;57.83;25.65;;;1.00;99.90;;;;;;5083740;28;20101;-82
2022/12/19 01:27:48;;;;;;;55.50;26.52;;;1.00;99.90;;;;;;5080917;28;20044;-84
2022/12/19 01:30:34;;;;;;;51.25;24.60;;;1.00;99.90;;;;;;5081737;28;20095;-78
2022/12/19 01:33:20;;;;;;;55.25;24.85;;;1.00;99.90;;;;;;5097557;28;20868;-79
2022/12/19 01:36:08;;;;;;;50.20;24.55;;;1.10;99.90;;;;;;5093778;28;20056;-84
2022/12/19 01:38:57;;;;;;;51.03;24.83;;;1.00;99.90;;;;;;5091010;28;20052;-85
2022/12/19 01:41:43;;;;;;;49.95;25.33;;;1.00;99.90;;;;;;5104505;28;20044;-84
2022/12/19 01:44:30;;;;;;;52.55;25.63;;;1.10;99.90;;;;;;5074589;28;20044;-79
2022/12/19 01:47:16;;;;;;;52.05;27.30;;;1.10;99.90;;;;;;5093010;28;20142;-79
2022/12/19 01:50:03;;;;;;;52.25;26.23;;;1.10;99.90;;;;;;5074833;28;20044;-85
2022/12/19 01:52:50;;;;;;;52.72;25.67;;;1.10;99.90;;;;;;5094930;28;20048;-85
2022/12/19 01:55:40;;;;;;;51.17;26.17;;;1.10;99.90;;;;;;5094953;28;20052;-84
2022/12/19 01:58:26;;;;;;;52.00;25.38;;;1.20;99.90;;;;;;5064331;28;20142;-84
2022/12/19 02:01:14;;;;;;;58.25;27.45;;;1.20;99.90;;;;;;5085496;28;20112;-81
2022/12/19 02:04:02;;;;;;;55.47;27.13;;;1.20;99.90;;;;;;5076730;28;20075;-84
2022/12/19 02:06:49;;;;;;;53.05;25.27;;;1.20;99.90;;;;;;5096165;28;20071;-79
2022/12/19 02:09:36;;;;;;;54.92;27.40;;;1.20;99.90;;;;;;5103008;28;20048;-83
2022/12/19 02:12:25;;;;;;;48.92;24.85;;;1.20;99.90;;;;;;5099992;28;20519;-82
2022/12/19 02:15:13;;;;;;;61.95;29.92;;;1.20;99.90;;;;;;5096945;28;20048;-76
2022/12/19 02:18:31;;;;;;;48.83;27.08;;;1.20;99.90;;;;;;5093270;28;20051;-77
2022/12/19 02:22:08;;;;;;;56.22;27.33;;;1.20;99.90;;;;;;5093073;28;20048;-78
2022/12/19 02:25:22;;;;;;;62.13;29.33;;;1.20;99.90;;;;;;5045608;28;20151;-83
2022/12/19 02:28:34;;;;;;;57.67;28.83;;;1.20;99.90;;;;;;5079926;28;20044;-83
2022/12/19 02:31:50;;;;;;;59.85;28.65;;;1.20;99.90;;;;;;5075188;28;20052;-80
2022/12/19 02:34:44;;;;;;;65.22;32.05;;;1.20;99.90;;;;;;5098729;28;20048;-79
2022/12/19 02:37:34;;;;;;;64.28;29.45;;;1.30;99.90;;;;;;5092785;28;20571;-80
2022/12/19 02:40:26;;;;;;;67.40;32.83;;;1.20;99.90;;;;;;5101243;28;20047;-81
2022/12/19 02:43:14;;;;;;;75.25;31.27;;;1.20;99.90;;;;;;5092252;28;20101;-82
2022/12/19 02:46:03;;;;;;;60.60;30.45;;;1.30;99.90;;;;;;5074377;28;20054;-78
2022/12/19 02:48:50;;;;;;;70.82;32.60;;;1.30;99.90;;;;;;5073754;28;20043;-78
2022/12/19 02:51:36;;;;;;;70.47;33.17;;;1.30;99.90;;;;;;5092380;28;20054;-81
2022/12/19 02:54:23;;;;;;;72.22;33.30;;;1.40;99.90;;;;;;5066007;28;20408;-79
2022/12/19 02:57:24;;;;;;;71.82;33.40;;;1.40;99.90;;;;;;5072386;28;20048;-85
2022/12/19 03:00:19;;;;;;;68.10;33.60;;;1.40;99.90;;;;;;5078831;28;20471;-78
2022/12/19 03:03:20;;;;;;;71.68;32.70;;;1.40;99.90;;;;;;5091779;28;20801;-80
2022/12/19 03:06:11;;;;;;;80.72;34.47;;;1.40;99.90;;;;;;5090899;28;20384;-85
2022/12/19 03:09:04;;;;;;;74.13;34.03;;;1.40;99.90;;;;;;5095511;28;20044;-80
2022/12/19 03:11:58;;;;;;;78.32;34.60;;;1.40;99.90;;;;;;5059487;28;20059;-84
2022/12/19 03:14:46;;;;;;;75.45;35.05;;;1.40;99.90;;;;;;5076481;28;20056;-79
2022/12/19 03:17:39;;;;;;;83.57;36.47;;;1.50;99.90;;;;;;5091706;28;20071;-77
2022/12/19 03:20:44;;;;;;;83.72;39.30;;;1.50;99.90;;;;;;5079913;28;20048;-80
2022/12/19 03:23:30;;;;;;;80.70;37.65;;;1.50;99.90;;;;;;5085366;28;20070;-78
2022/12/19 03:26:22;;;;;;;87.38;37.55;;;1.50;99.90;;;;;;5073746;28;20052;-81
2022/12/19 03:29:31;;;;;;;91.70;38.20;;;1.60;99.90;;;;;;5090804;28;20127;-85
2022/12/19 03:32:18;;;;;;;87.63;38.17;;;1.60;99.90;;;;;;5091261;28;20161;-82
2022/12/19 03:35:07;;;;;;;93.97;40.95;;;1.70;99.90;;;;;;5101921;28;20048;-85
2022/12/19 03:37:57;;;;;;;86.90;36.35;;;1.70;99.90;;;;;;5090648;28;20117;-79
2022/12/19 03:40:45;;;;;;;87.75;40.33;;;1.80;99.90;;;;;;5073114;28;20489;-77
2022/12/19 03:43:33;;;;;;;82.10;38.25;;;1.80;99.90;;;;;;5076136;28;20051;-77
2022/12/19 03:46:24;;;;;;;86.82;39.08;;;1.80;99.90;;;;;;5097064;28;20164;-80
2022/12/19 03:49:14;;;;;;;77.97;38.63;;;1.90;99.90;;;;;;5102369;28;20044;-84
2022/12/19 03:52:39;;;;;;;81.07;37.10;;;1.90;99.90;;;;;;5076188;28;20055;-82
2022/12/19 03:55:29;;;;;;;89.70;37.03;;;2.00;99.90;;;;;;5076034;28;20048;-86
2022/12/19 03:58:27;;;;;;;91.45;39.88;;;2.10;99.90;;;;;;5074415;28;20419;-83
2022/12/19 04:01:13;;;;;;;94.95;39.17;;;2.10;99.90;;;;;;5075630;28;20043;-85
2022/12/19 04:04:02;;;;;;;85.97;38.55;;;2.10;99.90;;;;;;5101977;28;20086;-79
2022/12/19 04:06:49;;;;;;;88.28;38.78;;;2.10;99.90;;;;;;5094487;28;20048;-82
2022/12/19 04:09:38;;;;;;;91.07;37.88;;;2.10;99.90;;;;;;5081931;28;20063;-78
2022/12/19 04:12:30;;;;;;;86.70;38.38;;;2.10;99.90;;;;;;5073587;28;20048;-89
2022/12/19 04:15:17;;;;;;;93.93;40.90;;;2.10;99.90;;;;;;5056674;28;20496;-83
2022/12/19 04:18:05;;;;;;;95.20;40.80;;;2.10;99.90;;;;;;5076375;28;20055;-88
2022/12/19 04:21:01;;;;;;;91.35;37.92;;;2.10;99.90;;;;;;5076444;28;20075;-85
2022/12/19 04:23:54;;;;;;;94.22;39.40;;;2.10;99.90;;;;;;5054877;28;20454;-81
2022/12/19 04:26:43;;;;;;;105.03;43.40;;;2.10;99.90;;;;;;5053902;28;20154;-86
2022/12/19 04:29:34;;;;;;;90.97;40.05;;;2.10;99.90;;;;;;5055636;28;20083;-78
2022/12/19 04:32:21;;;;;;;102.55;41.05;;;2.20;99.90;;;;;;5060819;28;20052;-88
2022/12/19 04:35:08;;;;;;;90.90;38.78;;;2.20;99.90;;;;;;5077652;28;20047;-83
2022/12/19 04:37:54;;;;;;;91.80;38.25;;;2.20;99.90;;;;;;5055048;28;20052;-87
2022/12/19 04:40:41;;;;;;;99.68;41.08;;;2.20;99.90;;;;;;5072245;28;20050;-88
2022/12/19 04:43:27;;;;;;;102.53;41.03;;;2.20;99.90;;;;;;5058705;28;20044;-86
2022/12/19 04:46:13;;;;;;;90.70;40.97;;;2.20;99.90;;;;;;5072959;28;20048;-84
2022/12/19 04:48:59;;;;;;;91.80;41.25;;;2.30;99.90;;;;;;5054201;28;20048;-81
2022/12/19 04:51:45;;;;;;;86.00;37.50;;;2.30;99.90;;;;;;5059941;28;20063;-86
2022/12/19 04:54:32;;;;;;;90.55;38.88;;;2.40;99.90;;;;;;5076679;28;20056;-81
2022/12/19 04:57:18;;;;;;;96.88;42.42;;;2.40;99.90;;;;;;5076411;28;20045;-82
2022/12/19 05:00:07;;;;;;;87.57;37.65;;;2.40;99.90;;;;;;5072863;28;20048;-86
2022/12/19 05:02:53;;;;;;;93.43;41.17;;;2.30;99.90;;;;;;5055142;28;20064;-82
2022/12/19 05:05:39;;;;;;;84.60;38.90;;;2.40;99.90;;;;;;5072386;28;20090;-81
2022/12/19 05:08:25;;;;;;;84.28;37.05;;;2.40;99.90;;;;;;5091085;28;20067;-88
2022/12/19 05:11:14;;;;;;;87.32;40.85;;;2.50;99.90;;;;;;5094011;28;20126;-87
2022/12/19 05:14:00;;;;;;;83.57;39.55;;;2.50;99.90;;;;;;5047717;28;20063;-78
2022/12/19 05:16:46;;;;;;;99.15;39.85;;;2.50;99.90;;;;;;5070927;28;20086;-86
2022/12/19 05:19:32;;;;;;;96.57;40.08;;;2.50;99.90;;;;;;5091482;28;20083;-87
2022/12/19 05:22:18;;;;;;;93.70;40.42;;;2.60;99.90;;;;;;5100756;28;20079;-84
2022/12/19 05:25:05;;;;;;;95.05;40.58;;;2.60;99.90;;;;;;5092253;28;20503;-85
2022/12/19 05:27:51;;;;;;;87.75;38.17;;;2.60;99.90;;;;;;5092336;28;20048;-83
2022/12/19 05:30:37;;;;;;;86.30;38.80;;;2.60;99.90;;;;;;5073090;28;20044;-82
2022/12/19 05:33:23;;;;;;;91.63;40.35;;;2.60;99.90;;;;;;5092648;28;20047;-79
2022/12/19 05:36:11;;;;;;;93.28;38.80;;;2.70;99.90;;;;;;5096853;28;20055;-83
2022/12/19 05:38:57;;;;;;;90.85;39.33;;;2.70;99.90;;;;;;5083264;28;20051;-83
2022/12/19 05:41:44;;;;;;;92.43;38.78;;;2.70;99.90;;;;;;5060741;28;20404;-80
2022/12/19 05:44:30;;;;;;;97.07;39.30;;;2.70;99.90;;;;;;5091475;28;20044;-85
2022/12/19 05:47:16;;;;;;;102.55;40.85;;;2.70;99.90;;;;;;5092261;28;20388;-84
2022/12/19 05:50:02;;;;;;;108.53;40.83;;;2.70;99.90;;;;;;5076169;28;20082;-87
2022/12/19 05:52:48;;;;;;;98.95;40.70;;;2.80;99.90;;;;;;5063932;28;20483;-83
2022/12/19 05:55:34;;;;;;;99.22;40.20;;;2.70;99.90;;;;;;5060360;28;20052;-88
2022/12/19 05:58:20;;;;;;;103.85;39.58;;;2.70;99.90;;;;;;5074111;28;20052;-79
2022/12/19 06:01:11;;;;;;;89.18;39.65;;;2.80;99.90;;;;;;5065409;28;20125;-87
2022/12/19 06:03:57;;;;;;;103.47;41.72;;;2.90;99.90;;;;;;5077006;28;20108;-87
2022/12/19 06:06:43;;;;;;;90.78;36.97;;;2.80;99.90;;;;;;5076793;28;20059;-80
2022/12/19 06:09:30;;;;;;;92.40;37.75;;;2.90;99.90;;;;;;5071289;28;20048;-86
2022/12/19 06:12:16;;;;;;;87.05;36.90;;;2.90;99.90;;;;;;5070985;28;20099;-84
2022/12/19 06:15:02;;;;;;;77.53;34.45;;;2.90;99.90;;;;;;5070705;28;20078;-82
2022/12/19 06:17:53;;;;;;;76.85;34.20;;;2.90;99.90;;;;;;5055661;28;20055;-86
2022/12/19 06:20:39;;;;;;;73.50;32.47;;;3.00;99.90;;;;;;5085721;28;20056;-82
2022/12/19 06:23:25;;;;;;;80.28;33.90;;;3.00;99.90;;;;;;5071231;28;20056;-83
2022/12/19 06:26:14;;;;;;;77.10;33.97;;;3.10;99.90;;;;;;5071985;28;20052;-83
2022/12/19 06:29:00;;;;;;;68.05;31.17;;;3.10;99.90;;;;;;5071246;28;20045;-81
2022/12/19 06:31:46;;;;;;;63.58;30.27;;;3.10;99.90;;;;;;5052512;28;20087;-83
2022/12/19 06:34:32;;;;;;;71.80;28.38;;;3.20;99.90;;;;;;5052568;28;20048;-88
2022/12/19 06:37:18;;;;;;;60.25;28.52;;;3.20;99.90;;;;;;5074949;28;20055;-79
2022/12/19 06:40:05;;;;;;;65.30;30.38;;;3.20;99.90;;;;;;5054401;28;20143;-80
2022/12/19 06:42:51;;;;;;;56.30;27.88;;;3.20;99.90;;;;;;5077635;28;20094;-80
2022/12/19 06:45:37;;;;;;;60.95;28.45;;;3.30;99.90;;;;;;5053606;28;20459;-80
2022/12/19 06:48:25;;;;;;;65.28;28.25;;;3.30;99.90;;;;;;5056238;28;20041;-82
2022/12/19 06:51:11;;;;;;;63.50;28.52;;;3.30;99.90;;;;;;5059382;28;20040;-81
2022/12/19 06:53:58;;;;;;;58.80;26.67;;;3.30;99.90;;;;;;5054536;28;20044;-85
2022/12/19 06:56:44;;;;;;;68.40;28.75;;;3.40;99.90;;;;;;5070489;28;20633;-82
2022/12/19 06:59:30;;;;;;;66.78;29.48;;;3.40;99.90;;;;;;5053027;28;20067;-83
2022/12/19 07:02:23;;;;;;;57.20;27.25;;;3.40;99.90;;;;;;5070302;28;20079;-81
2022/12/19 07:05:10;;;;;;;56.85;26.27;;;3.40;99.90;;;;;;5060554;28;20052;-85
2022/12/19 07:07:57;;;;;;;55.63;25.38;;;3.50;99.90;;;;;;5072467;28;20462;-84
2022/12/19 07:10:43;;;;;;;50.47;25.60;;;3.60;99.90;;;;;;5091274;28;20052;-83
2022/12/19 07:13:29;;;;;;;49.40;23.40;;;3.70;99.90;;;;;;5090482;28;20044;-85
2022/12/19 07:16:15;;;;;;;48.83;23.10;;;3.70;99.90;;;;;;5074601;28;20075;-82
2022/12/19 07:19:02;;;;;;;44.20;21.25;;;3.80;99.90;;;;;;5075322;28;20143;-83
2022/12/19 07:21:48;;;;;;;42.00;20.67;;;3.90;99.90;;;;;;5098190;28;20055;-84
2022/12/19 07:24:35;;;;;;;37.83;18.13;;;3.90;99.90;;;;;;5077243;28;20052;-80
2022/12/19 07:27:21;;;;;;;34.22;17.30;;;4.00;99.90;;;;;;5081402;28;20047;-82
2022/12/19 07:30:08;;;;;;;39.08;17.38;;;4.20;99.90;;;;;;5094160;28;20044;-86
2022/12/19 07:32:54;;;;;;;31.58;17.83;;;4.20;99.90;;;;;;5082718;28;20052;-85
2022/12/19 07:35:40;;;;;;;36.40;18.55;;;4.30;99.90;;;;;;5077475;28;20055;-84
2022/12/19 07:38:26;;;;;;;35.55;18.65;;;4.30;99.90;;;;;;5076410;28;20479;-83
2022/12/19 07:41:13;;;;;;;34.63;17.65;;;4.30;99.90;;;;;;5076239;28;20105;-81
2022/12/19 07:43:59;;;;;;;35.55;19.00;;;4.30;99.90;;;;;;5093253;28;20048;-84
2022/12/19 07:46:45;;;;;;;33.63;16.10;;;4.30;99.90;;;;;;5079318;28;20060;-84
2022/12/19 07:49:31;;;;;;;30.80;15.43;;;4.30;99.90;;;;;;5103959;28;20054;-82
2022/12/19 07:52:18;;;;;;;29.77;16.25;;;4.40;99.90;;;;;;5095049;28;20067;-85
2022/12/19 07:55:04;;;;;;;31.85;15.15;;;4.50;99.90;;;;;;5094018;28;20491;-82
2022/12/19 07:57:50;;;;;;;28.55;15.65;;;4.60;99.90;;;;;;5094108;28;20051;-85
2022/12/19 08:00:37;;;;;;;30.23;16.58;;;4.60;99.90;;;;;;5097037;28;20051;-83
2022/12/19 08:03:23;;;;;;;28.13;16.08;;;4.60;99.90;;;;;;5078791;28;20105;-84
2022/12/19 08:06:09;;;;;;;28.00;14.90;;;4.70;99.90;;;;;;5061994;28;20056;-81
2022/12/19 08:08:56;;;;;;;30.20;16.83;;;4.70;99.90;;;;;;5093477;28;20526;-80
2022/12/19 08:11:42;;;;;;;28.95;16.02;;;4.80;99.90;;;;;;5099250;28;20131;-83
2022/12/19 08:14:28;;;;;;;28.65;15.70;;;4.80;99.90;;;;;;5093457;28;20044;-85
2022/12/19 08:17:14;;;;;;;28.00;15.35;;;4.80;99.90;;;;;;5077079;28;20047;-83
2022/12/19 08:20:00;;;;;;;29.55;15.90;;;4.90;99.90;;;;;;5078771;28;20044;-83
2022/12/19 08:22:47;;;;;;;27.17;16.00;;;4.90;99.90;;;;;;5075423;28;20111;-83
2022/12/19 08:25:33;;;;;;;27.15;16.27;;;5.00;99.90;;;;;;5075236;28;20044;-82
2022/12/19 08:28:20;;;;;;;26.70;15.60;;;5.10;99.90;;;;;;5092533;28;20559;-82
2022/12/19 08:31:08;;;;;;;29.17;16.95;;;5.20;99.90;;;;;;5098053;28;20079;-84
2022/12/19 08:33:56;;;;;;;30.63;16.60;;;5.20;99.90;;;;;;5074963;28;20542;-85
2022/12/19 08:36:42;;;;;;;28.52;15.40;;;5.20;99.90;;;;;;5083301;28;20130;-84
2022/12/19 08:39:28;;;;;;;25.80;14.80;;;5.30;99.90;;;;;;5092289;28;20044;-82
2022/12/19 08:42:14;;;;;;;25.33;15.25;;;5.30;99.90;;;;;;5073752;28;20060;-84
2022/12/19 08:45:00;;;;;;;23.77;14.35;;;5.30;99.90;;;;;;5091872;28;20453;-82
2022/12/19 08:47:47;;;;;;;25.92;14.68;;;5.40;99.90;;;;;;5077392;28;20054;-80
2022/12/19 08:50:33;;;;;;;30.05;15.68;;;5.40;99.90;;;;;;5065169;28;20078;-86
2022/12/19 08:53:21;;;;;;;27.48;14.70;;;5.40;99.90;;;;;;5061671;28;20056;-80
2022/12/19 08:56:16;;;;;;;26.20;14.90;;;5.50;99.90;;;;;;5065871;28;20381;-83
2022/12/19 08:59:03;;;;;;;24.95;15.10;;;5.60;99.90;;;;;;5077980;28;20063;-82
2022/12/19 09:01:49;;;;;;;29.73;16.38;;;5.70;99.90;;;;;;5093255;28;20040;-85
2022/12/19 09:04:36;;;;;;;28.75;17.08;;;5.70;99.90;;;;;;5073872;28;20056;-81
2022/12/19 09:07:22;;;;;;;25.88;15.82;;;5.80;99.90;;;;;;5088724;28;20048;-81
2022/12/19 09:10:09;;;;;;;27.17;16.40;;;5.80;99.90;;;;;;5053625;28;20129;-79
2022/12/19 09:12:55;;;;;;;28.10;17.80;;;5.90;99.90;;;;;;5054284;28;20091;-83
2022/12/19 09:15:41;;;;;;;27.63;16.52;;;5.90;99.90;;;;;;5073812;28;20611;-85
2022/12/19 09:18:28;;;;;;;31.92;18.25;;;5.90;99.90;;;;;;5078017;28;20103;-86
2022/12/19 09:21:16;;;;;;;29.85;18.35;;;6.00;99.90;;;;;;5044586;28;20064;-84
2022/12/19 09:24:03;;;;;;;33.05;19.60;;;6.00;99.90;;;;;;5039660;28;20063;-83
2022/12/19 09:26:49;;;;;;;34.72;19.38;;;6.10;99.90;;;;;;5071911;28;20115;-81
2022/12/19 09:29:35;;;;;;;32.33;19.38;;;6.10;99.90;;;;;;5056499;28;20593;-79
2022/12/19 09:32:21;;;;;;;35.20;21.45;;;6.20;99.90;;;;;;5070523;28;20047;-79
2022/12/19 09:35:08;;;;;;;32.00;20.42;;;6.20;99.90;;;;;;5052102;28;20052;-83
2022/12/19 09:37:54;;;;;;;34.70;19.95;;;6.20;99.90;;;;;;5072733;28;20045;-81
2022/12/19 09:40:54;;;;;;;33.78;21.40;;;6.30;99.90;;;;;;5057113;28;20055;-79
2022/12/19 09:44:02;;;;;;;31.27;20.15;;;6.30;99.90;;;;;;5077607;28;20044;-80
2022/12/19 09:46:48;;;;;;;31.67;21.90;;;6.40;99.90;;;;;;5070910;28;20626;-78
2022/12/19 09:49:42;;;;;;;33.55;20.33;;;6.40;99.90;;;;;;5040856;28;20087;-80
2022/12/19 09:52:34;;;;;;;33.38;20.70;;;6.50;99.90;;;;;;5071117;28;20476;-80
2022/12/19 09:55:27;;;;;;;32.53;20.52;;;6.40;99.90;;;;;;5042251;28;20053;-83
2022/12/19 09:58:30;;;;;;;36.10;22.73;;;6.50;99.90;;;;;;5073831;28;20527;-83
2022/12/19 10:01:22;;;;;;;36.85;21.75;;;6.50;99.90;;;;;;5070515;28;20420;-81
2022/12/19 10:04:12;;;;;;;36.67;22.98;;;6.60;99.90;;;;;;5069936;28;20489;-84
2022/12/19 10:06:58;;;;;;;35.40;22.02;;;6.70;99.90;;;;;;5077953;28;20068;-81
2022/12/19 10:09:45;;;;;;;32.17;20.80;;;6.70;99.90;;;;;;5092152;28;20120;-82
2022/12/19 10:12:53;;;;;;;33.22;20.85;;;6.70;99.90;;;;;;5095930;28;20052;-81
2022/12/19 10:16:02;;;;;;;34.65;20.95;;;6.80;99.90;;;;;;5072957;28;20048;-84
2022/12/19 10:18:56;;;;;;;29.50;20.08;;;6.80;99.90;;;;;;5059649;28;20050;-83
2022/12/19 10:22:17;;;;;;;29.70;20.95;;;6.80;99.90;;;;;;5072375;28;20059;-81
2022/12/19 10:25:24;;;;;;;33.97;21.85;;;7.00;99.90;;;;;;5049219;28;20052;-83
2022/12/19 10:28:10;;;;;;;32.00;19.75;;;7.00;99.90;;;;;;5097104;28;20450;-81
2022/12/19 10:30:56;;;;;;;28.45;20.35;;;7.10;99.90;;;;;;5091326;28;20044;-80
2022/12/19 10:34:03;;;;;;;31.13;19.88;;;7.10;99.90;;;;;;5072688;28;20044;-80
2022/12/19 10:36:59;;;;;;;28.50;20.42;;;7.10;99.90;;;;;;5073389;28;20052;-83
2022/12/19 10:39:48;;;;;;;28.92;18.70;;;7.10;99.90;;;;;;5074490;28;20113;-80
2022/12/19 10:42:46;;;;;;;29.95;19.50;;;7.10;99.90;;;;;;5090832;28;20063;-83
2022/12/19 10:45:40;;;;;;;26.83;18.88;;;7.10;99.90;;;;;;5064386;28;20044;-80
2022/12/19 10:48:27;;;;;;;32.38;19.75;;;7.10;99.90;;;;;;5090297;28;20059;-80
2022/12/19 10:51:23;;;;;;;28.45;18.60;;;7.20;99.90;;;;;;5075952;28;20105;-82
2022/12/19 10:54:09;;;;;;;29.15;18.70;;;7.30;99.90;;;;;;5090098;28;20059;-81
2022/12/19 10:57:24;;;;;;;27.58;18.23;;;7.30;99.90;;;;;;5072591;28;20047;-82
2022/12/19 11:00:16;;;;;;;27.85;18.52;;;7.30;99.90;;;;;;5090239;28;20055;-81
2022/12/19 11:03:14;;;;;;;26.05;18.85;;;7.30;99.90;;;;;;5072545;28;20180;-84
2022/12/19 11:06:02;;;;;;;29.50;18.48;;;7.30;99.90;;;;;;5093605;28;20044;-79
2022/12/19 11:09:10;;;;;;;26.27;16.80;;;7.30;99.90;;;;;;5073106;28;20044;-81
2022/12/19 11:11:58;;;;;;;26.67;16.95;;;7.30;99.90;;;;;;5076019;28;20085;-82
2022/12/19 11:15:23;;;;;;;26.38;16.85;;;7.40;99.90;;;;;;5074921;28;20041;-84
2022/12/19 11:18:11;;;;;;;26.75;17.35;;;7.40;99.90;;;;;;5009023;28;20050;-85
2022/12/19 11:21:02;;;;;;;23.17;15.40;;;7.40;99.90;;;;;;5013329;28;20406;-82
2022/12/19 11:23:52;;;;;;;25.20;16.23;;;7.50;99.90;;;;;;5065956;28;20044;-81
2022/12/19 11:26:39;;;;;;;20.45;14.45;;;7.50;99.90;;;;;;5090600;28;20097;-82
2022/12/19 11:29:37;;;;;;;25.15;16.17;;;7.60;99.90;;;;;;5091417;28;20048;-81
2022/12/19 11:32:35;;;;;;;21.63;14.93;;;7.60;99.90;;;;;;5076677;28;20048;-84
2022/12/19 11:35:24;;;;;;;22.85;14.35;;;7.60;99.90;;;;;;5072410;28;20472;-83
2022/12/19 11:38:13;;;;;;;22.98;14.70;;;7.60;99.90;;;;;;5073676;28;20071;-80
2022/12/19 11:41:08;;;;;;;20.05;13.32;;;7.70;99.90;;;;;;5070856;28;20055;-79
2022/12/19 11:44:02;;;;;;;20.77;14.03;;;7.70;99.90;;;;;;5094429;28;20044;-80
2022/12/19 11:47:18;;;;;;;22.27;14.32;;;7.80;99.90;;;;;;5091043;28;20282;-79
2022/12/19 11:50:32;;;;;;;20.63;13.93;;;7.80;99.90;;;;;;5072266;28;20180;-80
2022/12/19 11:53:32;;;;;;;19.02;12.77;;;7.80;99.90;;;;;;5090369;28;20048;-83
2022/12/19 11:56:22;;;;;;;17.98;13.20;;;7.80;99.90;;;;;;5074110;28;20036;-82
2022/12/19 11:59:27;;;;;;;24.65;13.35;;;7.80;99.90;;;;;;5096181;28;20059;-79
2022/12/19 12:02:16;;;;;;;16.83;12.10;;;7.90;99.90;;;;;;5075237;28;20052;-79
2022/12/19 12:05:40;;;;;;;21.67;12.18;;;8.00;99.90;;;;;;5072827;28;20047;-81
2022/12/19 12:08:40;;;;;;;17.70;11.85;;;7.90;99.90;;;;;;5075312;28;20396;-81
2022/12/19 12:11:53;;;;;;;20.17;12.25;;;8.00;99.90;;;;;;5074972;28;20048;-82
2022/12/19 12:15:09;;;;;;;17.33;11.50;;;8.00;99.90;;;;;;5077878;28;20155;-82
2022/12/19 12:18:38;;;;;;;16.48;11.45;;;8.00;99.90;;;;;;5075523;28;20117;-83
2022/12/19 12:21:44;;;;;;;15.98;11.40;;;8.00;99.90;;;;;;5051938;28;20047;-81
2022/12/19 12:24:45;;;;;;;16.25;10.38;;;8.10;99.90;;;;;;5079362;28;20048;-81
2022/12/19 12:27:53;;;;;;;16.75;11.15;;;8.10;99.90;;;;;;5080558;28;20044;-82
2022/12/19 12:30:58;;;;;;;14.65;10.27;;;8.10;99.90;;;;;;5093725;28;20048;-82
2022/12/19 12:33:47;;;;;;;17.67;11.15;;;8.10;99.90;;;;;;5075393;28;20089;-82
2022/12/19 12:36:45;;;;;;;22.65;10.93;;;8.20;99.90;;;;;;5074585;28;20047;-84
2022/12/19 12:39:59;;;;;;;16.65;10.80;;;8.10;99.90;;;;;;5075854;28;20435;-85
2022/12/19 12:43:00;;;;;;;16.23;9.98;;;8.10;99.90;;;;;;5104291;28;20044;-80
2022/12/19 12:45:46;;;;;;;15.88;11.10;;;8.10;99.90;;;;;;5093253;28;20059;-84
2022/12/19 12:49:14;;;;;;;18.45;10.65;;;8.10;99.90;;;;;;5074673;28;20079;-80
2022/12/19 12:52:03;;;;;;;15.82;10.85;;;8.10;99.90;;;;;;5065358;28;20040;-81
2022/12/19 12:54:50;;;;;;;17.45;10.50;;;8.10;99.90;;;;;;5074991;28;20087;-80
2022/12/19 12:57:37;;;;;;;17.55;10.45;;;8.10;99.90;;;;;;5076415;28;20055;-80
2022/12/19 13:00:31;;;;;;;13.65;9.75;;;8.10;99.90;;;;;;5074035;28;20044;-84
2022/12/19 13:03:18;;;;;;;17.08;9.63;;;8.20;99.90;;;;;;5092447;28;20044;-83
2022/12/19 13:06:19;;;;;;;13.45;9.98;;;8.20;99.90;;;;;;5092961;28;20048;-82
2022/12/19 13:09:09;;;;;;;11.20;8.70;;;8.20;99.90;;;;;;5071385;28;20545;-82
2022/12/19 13:15:27;;;;;;;13.88;9.30;;;8.20;99.90;;;;;;5076922;28;20149;-78
2022/12/19 13:18:34;;;;;;;13.43;9.57;;;8.20;99.90;;;;;;5077144;28;20047;-80
2022/12/19 13:21:21;;;;;;;13.43;8.80;;;8.10;99.90;;;;;;5091532;28;20040;-82
2022/12/19 13:24:20;;;;;;;14.68;9.75;;;8.20;99.90;;;;;;5093469;28;20403;-85
2022/12/19 13:27:18;;;;;;;14.75;9.32;;;8.20;99.90;;;;;;5092243;28;20051;-83
2022/12/19 13:30:13;;;;;;;16.48;9.75;;;8.20;99.90;;;;;;5091568;28;20140;-80
2022/12/19 13:32:59;;;;;;;15.65;9.55;;;8.20;99.90;;;;;;5073763;28;20503;-80
2022/12/19 13:35:46;;;;;;;14.20;9.32;;;8.10;99.90;;;;;;5091950;28;20052;-78
2022/12/19 13:38:49;;;;;;;18.08;10.02;;;8.10;99.90;;;;;;5100309;28;20094;-83
2022/12/19 13:44:49;;;;;;;16.33;10.02;;;8.10;99.90;;;;;;5091184;28;20499;-83
2022/12/19 13:47:41;;;;;;;14.85;9.90;;;8.10;99.90;;;;;;5076927;28;20054;-86
2022/12/19 13:50:36;;;;;;;17.33;11.40;;;8.00;99.90;;;;;;5072966;28;20109;-86
2022/12/19 13:53:26;;;;;;;16.90;10.93;;;8.00;99.90;;;;;;5076567;28;20086;-82
2022/12/19 13:56:16;;;;;;;18.35;11.57;;;8.10;99.90;;;;;;5073472;28;20048;-82
2022/12/19 13:59:04;;;;;;;17.02;10.95;;;8.10;99.90;;;;;;5060392;28;20105;-83
2022/12/19 14:01:52;;;;;;;15.68;11.07;;;8.10;99.90;;;;;;5091859;28;20413;-85
2022/12/19 14:04:39;;;;;;;15.93;11.00;;;8.10;99.90;;;;;;5081708;28;20052;-80
2022/12/19 14:07:39;;;;;;;14.57;9.98;;;8.20;99.90;;;;;;5091735;28;20048;-84
2022/12/19 14:10:32;;;;;;;14.18;10.30;;;8.30;99.90;;;;;;5075544;28;20048;-84
2022/12/19 14:16:27;;;;;;;16.38;10.32;;;8.30;99.90;;;;;;5073087;28;20044;-83
2022/12/19 14:19:25;;;;;;;14.30;10.32;;;8.30;99.90;;;;;;5073856;28;20055;-83
2022/12/19 14:22:21;;;;;;;16.67;10.80;;;8.30;99.90;;;;;;5095939;28;20377;-83
2022/12/19 14:25:10;;;;;;;16.52;11.35;;;8.30;99.90;;;;;;5072171;28;20876;-84
2022/12/19 14:28:06;;;;;;;19.17;12.65;;;8.30;99.90;;;;;;5092735;28;20044;-84
2022/12/19 14:30:59;;;;;;;18.83;11.68;;;8.30;99.90;;;;;;5077715;28;20408;-82
2022/12/19 14:33:48;;;;;;;21.45;14.10;;;8.30;99.90;;;;;;5090635;28;20048;-83
2022/12/19 14:36:37;;;;;;;22.88;15.30;;;8.30;99.90;;;;;;5091240;28;20515;-80
2022/12/19 14:39:35;;;;;;;23.63;16.17;;;8.30;99.90;;;;;;5096217;28;20056;-82
2022/12/19 14:45:39;;;;;;;30.27;17.50;;;8.30;99.90;;;;;;5071805;28;20048;-81
2022/12/19 14:48:52;;;;;;;24.23;16.98;;;8.30;99.90;;;;;;5091955;28;20599;-85
2022/12/19 14:51:42;;;;;;;22.75;15.63;;;8.30;99.90;;;;;;5076111;28;20044;-85
2022/12/19 14:54:28;;;;;;;21.20;15.50;;;8.30;99.90;;;;;;5075388;28;20048;-80